WetterOnline ( https://www.wetteronline.de )

Wetter aktuell Denkendorf

Aktuelles Wetter: Gelbelsee (539m)

6-stündlich | Neueste Meldungen
Ortszeit Temperatur Wetter
Mi, 28.09. 8:00 7.2° C bedeckt
Mi, 28.09. 2:00 5.3° C wolkig
Di, 27.09. 20:00 6.9° C Regen
Di, 27.09. 14:00 9.4° C Sprühregen
Di, 27.09. 8:00 8.0° C bewölkt
Di, 27.09. 2:00 9.8° C leichter Regen
Mo, 26.09. 20:00 11.2° C bedeckt
Mo, 26.09. 14:00 13.3° C wolkig
Ortszeit Temperatur Wetter
Mi, 28.09. 13:30 8.7° C bedeckt
Mi, 28.09. 13:20 8.7° C bedeckt
Mi, 28.09. 13:10 8.6° C bedeckt
Mi, 28.09. 13:00 8.8° C bedeckt
Mi, 28.09. 12:50 8.8° C bedeckt
Mi, 28.09. 12:40 8.9° C bedeckt
Mi, 28.09. 12:30 8.8° C bewölkt
Mi, 28.09. 12:00 8.7° C bewölkt
Mi, 28.09. 11:30 7.8° C leichter Regen
Mi, 28.09. 11:00 7.5° C leichter Regen
Mi, 28.09. 10:30 7.2° C leichter Regen
Ortszeit Relative Feuchte Sichtweite
Mi, 28.09. 8:00 96% 30 km
Mi, 28.09. 2:00 94% 60 km
Di, 27.09. 20:00 92% >70 km
Di, 27.09. 14:00 79% 30 km
Di, 27.09. 8:00 90% 65 km
Di, 27.09. 2:00 80% 40 km
Mo, 26.09. 20:00 69% 65 km
Mo, 26.09. 14:00 64% 50 km
Ortszeit Relative Feuchte Sichtweite
Mi, 28.09. 13:30 84% 60 km
Mi, 28.09. 13:20 84% -
Mi, 28.09. 13:10 82% -
Mi, 28.09. 13:00 83% >70 km
Mi, 28.09. 12:50 83% -
Mi, 28.09. 12:40 85% -
Mi, 28.09. 12:30 84% >70 km
Mi, 28.09. 12:00 88% >70 km
Mi, 28.09. 11:30 90% 40 km
Mi, 28.09. 11:00 92% 35 km
Mi, 28.09. 10:30 93% 35 km
Ortszeit Niederschlagsmenge Niederschlagsart
Mi, 28.09. 8:00 2 l/m2 in 12 Std. Regen
Mi, 28.09. 2:00 0.1 l/m2 in 6 Std. Regen
Di, 27.09. 20:00 1 l/m2 in 12 Std. Regen
Di, 27.09. 14:00 0.4 l/m2 in 6 Std. Regen
Di, 27.09. 8:00 4 l/m2 in 12 Std. Regen
Di, 27.09. 2:00 0.6 l/m2 in 6 Std. Regen
Mo, 26.09. 20:00 0.0 l/m2 in 12 Std. -
Mo, 26.09. 14:00 0.0 l/m2 in 6 Std. -
Ortszeit Niederschlagsmenge Niederschlagsart
Mi, 28.09. 13:30 0.0 l/m2 in 1 Std. -
Mi, 28.09. 13:20 keine Meldung -
Mi, 28.09. 13:10 keine Meldung -
Mi, 28.09. 13:00 0.0 l/m2 in 1 Std. -
Mi, 28.09. 12:50 keine Meldung -
Mi, 28.09. 12:40 keine Meldung -
Mi, 28.09. 12:30 0.0 l/m2 in 1 Std. -
Mi, 28.09. 12:00 0.1 l/m2 in 1 Std. Regen
Mi, 28.09. 11:30 0.1 l/m2 in 1 Std. -
Mi, 28.09. 11:00 0.2 l/m2 in 1 Std. Regen
Mi, 28.09. 10:30 0.1 l/m2 in 1 Std. -
Ortszeit Stärke Spitze Richtung
km/h Bft. km/h Grad Sektor
Mi, 28.09. 8:00 7 2 25 190° S
Mi, 28.09. 2:00 7 2 20 220° SW
Di, 27.09. 20:00 9 2 46 240° SW
Di, 27.09. 14:00 22 4 40 260° W
Di, 27.09. 8:00 17 3 37 250° W
Di, 27.09. 2:00 11 2 25 190° S
Mo, 26.09. 20:00 7 2 25 220° SW
Mo, 26.09. 14:00 11 2 25 210° SW
Ortszeit Stärke Spitze Richtung
km/h Bft. km/h Grad Sektor
Mi, 28.09. 13:30 11 2 18 260° W
Mi, 28.09. 13:20 11 2 - 260° W
Mi, 28.09. 13:10 13 3 - 260° W
Mi, 28.09. 13:00 14 3 25 260° W
Mi, 28.09. 12:50 14 3 - 260° W
Mi, 28.09. 12:40 11 2 - 250° W
Mi, 28.09. 12:30 13 3 26 250° W
Mi, 28.09. 12:00 13 3 20 250° W
Mi, 28.09. 11:30 11 2 18 250° W
Mi, 28.09. 11:00 9 2 19 240° SW
Mi, 28.09. 10:30 7 2 18 230° SW
Ortszeit Untergrenze Bedeckung Gattung
total tief tief mittel hoch
Mi, 28.09. 8:00 450 m 8/8 8/8 - - -
Mi, 28.09. 2:00 1500 m 8/8 3/8 - - -
Di, 27.09. 20:00 720 m 8/8 8/8 - - -
Di, 27.09. 14:00 600 m 7/8 7/8 - - -
Di, 27.09. 8:00 390 m 7/8 7/8 - - -
Di, 27.09. 2:00 1110 m 8/8 8/8 - - -
Mo, 26.09. 20:00 1800 m 8/8 8/8 - - -
Mo, 26.09. 14:00 960 m 5/8 5/8 - - -
Ortszeit Bedeckungsgrad in Achtel und Wolkenuntergrenze
Mi, 28.09. 13:30 2(570m) 7(1140m) 8(1380m)
Mi, 28.09. 13:20 2(570m) 7(1140m) 8(1380m)
Mi, 28.09. 13:10 8
Mi, 28.09. 13:00 2(510m) 7(1140m) 8(1470m)
Mi, 28.09. 12:50 2(510m) 7(1140m) 8(1470m)
Mi, 28.09. 12:40 8
Mi, 28.09. 12:30 6(480m) 7(930m) 8(5400m)
Mi, 28.09. 12:00 7(420m) 7(2700m) 7(3300m)
Mi, 28.09. 11:30 7(330m) 7(540m) 8(2700m)
Mi, 28.09. 11:00 1(360m) 6(1500m) 8(1800m)
Mi, 28.09. 10:30 1(1140m) 7(1500m) 8(1500m)
Ortszeit Luftdruck NN (hPa) Tendenz (hPa in 3 Std.)
Mi, 28.09. 8:00 997 - 1,9
Mi, 28.09. 2:00 1003 - 0,7
Di, 27.09. 20:00 1003 + 0,2
Di, 27.09. 14:00 1002 + 0,5
Di, 27.09. 8:00 999 + 0,5
Di, 27.09. 2:00 1001 - 2,7
Mo, 26.09. 20:00 1005 - 0,7
Mo, 26.09. 14:00 1007 - 1,4
Ortszeit Luftdruck NN (hPa) Tendenz (hPa in 3 Std.)
Mi, 28.09. 13:30 999 + 1,1
Mi, 28.09. 13:20 999 keine Meldung
Mi, 28.09. 13:10 999 keine Meldung
Mi, 28.09. 13:00 999 + 1,5
Mi, 28.09. 12:50 999 keine Meldung
Mi, 28.09. 12:40 999 keine Meldung
Mi, 28.09. 12:30 999 + 1,7
Mi, 28.09. 12:00 999 + 1,8
Mi, 28.09. 11:30 999 + 2,0
Mi, 28.09. 11:00 999 + 1,8
Mi, 28.09. 10:30 998 + 1,2
Ortszeit Schneehöhe (cm)
Mi, 28.09. 8:00 0
Mi, 28.09. 2:00 0
Di, 27.09. 20:00 0
Di, 27.09. 14:00 0
Di, 27.09. 8:00 0
Di, 27.09. 2:00 0
Mo, 26.09. 20:00 0
Mo, 26.09. 14:00 0
Ortszeit Schneehöhe (cm)
Mi, 28.09. 13:30 0
Mi, 28.09. 13:20 0
Mi, 28.09. 13:10 0
Mi, 28.09. 13:00 0
Mi, 28.09. 12:50 0
Mi, 28.09. 12:40 0
Mi, 28.09. 12:30 0
Mi, 28.09. 12:00 0
Mi, 28.09. 11:30 0
Mi, 28.09. 11:00 0
Mi, 28.09. 10:30 0
Link zu dieser Seite / Seite empfehlen

Das Wetter in ...